sensor_id;sensor_type;location;lat;lon;timestamp;P1;durP1;ratioP1;P2;durP2;ratioP2
43901;SDS011;29562;40.390;-3.706;2022-10-16T00:08:58;18.63;;;8.38;;
43901;SDS011;29562;40.390;-3.706;2022-10-16T00:19:00;12.57;;;4.90;;
43901;SDS011;29562;40.390;-3.706;2022-10-16T00:29:02;9.48;;;5.50;;
43901;SDS011;29562;40.390;-3.706;2022-10-16T00:39:04;11.60;;;4.53;;
43901;SDS011;29562;40.390;-3.706;2022-10-16T00:49:14;8.68;;;3.97;;
43901;SDS011;29562;40.390;-3.706;2022-10-16T00:59:24;8.05;;;3.83;;
43901;SDS011;29562;40.390;-3.706;2022-10-16T01:29:42;10.13;;;3.30;;
43901;SDS011;29562;40.390;-3.706;2022-10-16T01:39:48;10.05;;;3.78;;
43901;SDS011;29562;40.390;-3.706;2022-10-16T01:49:53;6.75;;;3.33;;
43901;SDS011;29562;40.390;-3.706;2022-10-16T01:59:58;7.75;;;3.10;;
43901;SDS011;29562;40.390;-3.706;2022-10-16T02:10:06;4.78;;;3.35;;
43901;SDS011;29562;40.390;-3.706;2022-10-16T02:20:10;9.02;;;3.15;;
43901;SDS011;29562;40.390;-3.706;2022-10-16T02:40:34;8.27;;;3.45;;
43901;SDS011;29562;40.390;-3.706;2022-10-16T02:50:37;6.15;;;3.35;;
43901;SDS011;29562;40.390;-3.706;2022-10-16T03:00:38;7.72;;;3.58;;
43901;SDS011;29562;40.390;-3.706;2022-10-16T03:10:40;11.20;;;3.65;;
43901;SDS011;29562;40.390;-3.706;2022-10-16T03:20:42;5.70;;;3.28;;
43901;SDS011;29562;40.390;-3.706;2022-10-16T03:30:44;7.65;;;3.20;;
43901;SDS011;29562;40.390;-3.706;2022-10-16T03:40:48;7.35;;;3.63;;
43901;SDS011;29562;40.390;-3.706;2022-10-16T03:50:51;4.20;;;2.90;;
43901;SDS011;29562;40.390;-3.706;2022-10-16T04:00:54;6.40;;;3.50;;
43901;SDS011;29562;40.390;-3.706;2022-10-16T04:10:58;5.28;;;2.83;;
43901;SDS011;29562;40.390;-3.706;2022-10-16T04:21:04;4.10;;;2.58;;
43901;SDS011;29562;40.390;-3.706;2022-10-16T04:31:07;3.35;;;2.70;;
43901;SDS011;29562;40.390;-3.706;2022-10-16T04:41:10;5.00;;;3.15;;
43901;SDS011;29562;40.390;-3.706;2022-10-16T04:51:14;4.32;;;2.47;;
43901;SDS011;29562;40.390;-3.706;2022-10-16T05:01:16;4.40;;;3.10;;
43901;SDS011;29562;40.390;-3.706;2022-10-16T05:11:19;3.95;;;2.70;;
43901;SDS011;29562;40.390;-3.706;2022-10-16T05:21:21;6.07;;;3.35;;
43901;SDS011;29562;40.390;-3.706;2022-10-16T05:31:24;5.43;;;2.90;;
43901;SDS011;29562;40.390;-3.706;2022-10-16T05:41:27;8.05;;;3.70;;
43901;SDS011;29562;40.390;-3.706;2022-10-16T05:51:30;6.90;;;3.15;;
43901;SDS011;29562;40.390;-3.706;2022-10-16T06:01:32;4.32;;;2.88;;
43901;SDS011;29562;40.390;-3.706;2022-10-16T06:11:35;5.60;;;2.90;;
43901;SDS011;29562;40.390;-3.706;2022-10-16T06:21:40;8.50;;;3.35;;
43901;SDS011;29562;40.390;-3.706;2022-10-16T06:31:42;10.13;;;3.70;;
43901;SDS011;29562;40.390;-3.706;2022-10-16T06:41:45;6.53;;;3.20;;
43901;SDS011;29562;40.390;-3.706;2022-10-16T06:51:47;6.80;;;3.03;;
43901;SDS011;29562;40.390;-3.706;2022-10-16T07:01:51;7.63;;;3.33;;
43901;SDS011;29562;40.390;-3.706;2022-10-16T07:11:53;5.72;;;3.35;;
43901;SDS011;29562;40.390;-3.706;2022-10-16T07:21:55;5.82;;;3.58;;
43901;SDS011;29562;40.390;-3.706;2022-10-16T07:31:59;5.22;;;3.50;;
43901;SDS011;29562;40.390;-3.706;2022-10-16T07:42:01;11.07;;;4.25;;
43901;SDS011;29562;40.390;-3.706;2022-10-16T07:52:03;7.10;;;4.15;;
43901;SDS011;29562;40.390;-3.706;2022-10-16T08:02:05;18.38;;;4.40;;
43901;SDS011;29562;40.390;-3.706;2022-10-16T08:12:08;9.85;;;4.40;;
43901;SDS011;29562;40.390;-3.706;2022-10-16T08:22:12;7.55;;;4.88;;
43901;SDS011;29562;40.390;-3.706;2022-10-16T08:32:14;12.40;;;4.97;;
43901;SDS011;29562;40.390;-3.706;2022-10-16T08:52:19;11.88;;;6.72;;
43901;SDS011;29562;40.390;-3.706;2022-10-16T09:22:33;17.93;;;7.30;;
43901;SDS011;29562;40.390;-3.706;2022-10-16T09:32:36;15.77;;;6.68;;
43901;SDS011;29562;40.390;-3.706;2022-10-16T09:42:39;13.77;;;6.05;;
43901;SDS011;29562;40.390;-3.706;2022-10-16T09:52:41;15.18;;;6.60;;
43901;SDS011;29562;40.390;-3.706;2022-10-16T10:02:43;8.55;;;3.40;;
43901;SDS011;29562;40.390;-3.706;2022-10-16T10:12:45;9.25;;;3.50;;
43901;SDS011;29562;40.390;-3.706;2022-10-16T10:22:46;12.43;;;4.88;;
43901;SDS011;29562;40.390;-3.706;2022-10-16T10:43:01;11.45;;;3.90;;
43901;SDS011;29562;40.390;-3.706;2022-10-16T11:24:04;6.05;;;2.55;;
43901;SDS011;29562;40.390;-3.706;2022-10-16T11:54:47;10.88;;;4.20;;
43901;SDS011;29562;40.390;-3.706;2022-10-16T12:04:50;15.35;;;2.80;;
43901;SDS011;29562;40.390;-3.706;2022-10-16T12:15:01;7.43;;;3.30;;
43901;SDS011;29562;40.390;-3.706;2022-10-16T12:25:03;5.47;;;2.70;;
43901;SDS011;29562;40.390;-3.706;2022-10-16T12:35:05;11.68;;;2.92;;
43901;SDS011;29562;40.390;-3.706;2022-10-16T12:55:25;15.93;;;5.83;;
43901;SDS011;29562;40.390;-3.706;2022-10-16T13:36:25;11.05;;;2.80;;
43901;SDS011;29562;40.390;-3.706;2022-10-16T13:46:27;6.10;;;2.53;;
43901;SDS011;29562;40.390;-3.706;2022-10-16T13:56:31;9.63;;;2.70;;
43901;SDS011;29562;40.390;-3.706;2022-10-16T14:06:33;13.65;;;2.90;;
43901;SDS011;29562;40.390;-3.706;2022-10-16T14:16:36;15.85;;;5.90;;
43901;SDS011;29562;40.390;-3.706;2022-10-16T14:26:42;8.88;;;4.60;;
43901;SDS011;29562;40.390;-3.706;2022-10-16T14:36:45;9.82;;;2.90;;
43901;SDS011;29562;40.390;-3.706;2022-10-16T14:46:47;7.38;;;2.20;;
43901;SDS011;29562;40.390;-3.706;2022-10-16T14:56:52;6.63;;;2.97;;
43901;SDS011;29562;40.390;-3.706;2022-10-16T15:06:56;10.30;;;2.22;;
43901;SDS011;29562;40.390;-3.706;2022-10-16T15:16:58;7.88;;;2.55;;
43901;SDS011;29562;40.390;-3.706;2022-10-16T15:27:00;8.60;;;2.03;;
43901;SDS011;29562;40.390;-3.706;2022-10-16T15:37:04;9.45;;;2.88;;
43901;SDS011;29562;40.390;-3.706;2022-10-16T15:47:05;5.13;;;2.38;;
43901;SDS011;29562;40.390;-3.706;2022-10-16T15:57:08;9.60;;;3.78;;
43901;SDS011;29562;40.390;-3.706;2022-10-16T16:07:10;5.05;;;2.03;;
43901;SDS011;29562;40.390;-3.706;2022-10-16T16:17:12;7.53;;;2.53;;
43901;SDS011;29562;40.390;-3.706;2022-10-16T16:27:13;8.50;;;3.17;;
43901;SDS011;29562;40.390;-3.706;2022-10-16T16:37:15;11.07;;;3.90;;
43901;SDS011;29562;40.390;-3.706;2022-10-16T16:47:17;12.90;;;4.03;;
43901;SDS011;29562;40.390;-3.706;2022-10-16T16:57:20;7.90;;;3.00;;
43901;SDS011;29562;40.390;-3.706;2022-10-16T17:07:21;10.15;;;3.17;;
43901;SDS011;29562;40.390;-3.706;2022-10-16T17:17:25;14.63;;;2.83;;
43901;SDS011;29562;40.390;-3.706;2022-10-16T17:27:30;9.88;;;2.50;;
43901;SDS011;29562;40.390;-3.706;2022-10-16T17:37:34;12.88;;;3.63;;
43901;SDS011;29562;40.390;-3.706;2022-10-16T17:47:36;13.65;;;4.70;;
43901;SDS011;29562;40.390;-3.706;2022-10-16T17:57:38;14.93;;;6.10;;
43901;SDS011;29562;40.390;-3.706;2022-10-16T18:07:40;8.68;;;4.88;;
43901;SDS011;29562;40.390;-3.706;2022-10-16T18:17:44;13.52;;;3.95;;
43901;SDS011;29562;40.390;-3.706;2022-10-16T18:27:48;27.58;;;8.15;;
43901;SDS011;29562;40.390;-3.706;2022-10-16T18:37:49;20.80;;;7.25;;
43901;SDS011;29562;40.390;-3.706;2022-10-16T18:47:52;17.40;;;7.38;;
43901;SDS011;29562;40.390;-3.706;2022-10-16T18:57:55;23.60;;;7.30;;
43901;SDS011;29562;40.390;-3.706;2022-10-16T19:07:58;14.70;;;5.55;;
43901;SDS011;29562;40.390;-3.706;2022-10-16T19:18:00;13.35;;;5.43;;
43901;SDS011;29562;40.390;-3.706;2022-10-16T19:28:02;12.27;;;5.43;;
43901;SDS011;29562;40.390;-3.706;2022-10-16T19:38:07;12.90;;;4.53;;
43901;SDS011;29562;40.390;-3.706;2022-10-16T19:48:09;10.85;;;3.67;;
43901;SDS011;29562;40.390;-3.706;2022-10-16T19:58:13;12.57;;;4.00;;
43901;SDS011;29562;40.390;-3.706;2022-10-16T20:08:15;11.18;;;3.75;;
43901;SDS011;29562;40.390;-3.706;2022-10-16T20:18:17;13.15;;;4.43;;
43901;SDS011;29562;40.390;-3.706;2022-10-16T20:28:19;16.75;;;5.32;;
43901;SDS011;29562;40.390;-3.706;2022-10-16T20:38:21;15.18;;;5.47;;
43901;SDS011;29562;40.390;-3.706;2022-10-16T20:48:23;18.20;;;4.90;;
43901;SDS011;29562;40.390;-3.706;2022-10-16T20:58:24;9.50;;;4.40;;
43901;SDS011;29562;40.390;-3.706;2022-10-16T21:08:26;12.13;;;3.70;;
43901;SDS011;29562;40.390;-3.706;2022-10-16T21:18:28;9.98;;;3.47;;
43901;SDS011;29562;40.390;-3.706;2022-10-16T21:28:30;9.05;;;3.10;;
43901;SDS011;29562;40.390;-3.706;2022-10-16T21:38:32;8.55;;;2.72;;
43901;SDS011;29562;40.390;-3.706;2022-10-16T21:48:34;9.07;;;3.28;;
43901;SDS011;29562;40.390;-3.706;2022-10-16T21:58:36;9.75;;;3.03;;
43901;SDS011;29562;40.390;-3.706;2022-10-16T22:08:38;9.38;;;3.13;;
43901;SDS011;29562;40.390;-3.706;2022-10-16T22:18:41;8.02;;;3.22;;
43901;SDS011;29562;40.390;-3.706;2022-10-16T22:28:44;8.88;;;3.50;;
43901;SDS011;29562;40.390;-3.706;2022-10-16T22:38:45;9.52;;;3.67;;
43901;SDS011;29562;40.390;-3.706;2022-10-16T22:48:47;11.85;;;3.45;;
43901;SDS011;29562;40.390;-3.706;2022-10-16T22:58:49;11.23;;;4.68;;
43901;SDS011;29562;40.390;-3.706;2022-10-16T23:08:51;12.88;;;4.30;;
43901;SDS011;29562;40.390;-3.706;2022-10-16T23:18:54;12.13;;;4.35;;
43901;SDS011;29562;40.390;-3.706;2022-10-16T23:28:56;9.05;;;4.93;;
43901;SDS011;29562;40.390;-3.706;2022-10-16T23:38:58;10.82;;;4.53;;
43901;SDS011;29562;40.390;-3.706;2022-10-16T23:49:00;12.60;;;5.03;;
43901;SDS011;29562;40.390;-3.706;2022-10-16T23:59:02;7.72;;;3.63;;
